Time;durP1;ratioP1;P1;durP2;ratioP2;P2;SDS_P1;SDS_P2;PMS_P1;PMS_P2;Temp;Humidity;BMP_temperature;BMP_pressure;BME280_temperature;BME280_humidity;BME280_pressure;Samples;Min_cycle;Max_cycle;Signal;HPM_P1;HPM_P2
2020/12/02 00:00:08;;;;;;;18.48;16.58;;;2.30;76.80;;;;;;4949155;29;20240;-72
2020/12/02 00:02:43;;;;;;;16.88;14.35;;;2.30;77.30;;;;;;4951929;28;20184;-72
2020/12/02 00:05:11;;;;;;;20.35;16.13;;;2.30;57.90;;;;;;4950296;29;20191;-71
2020/12/02 00:07:39;;;;;;;17.65;15.80;;;2.20;55.20;;;;;;4951414;28;20561;-71
2020/12/02 00:10:06;;;;;;;17.05;14.90;;;2.20;55.60;;;;;;4950740;28;20180;-71
2020/12/02 00:12:32;;;;;;;15.55;13.18;;;2.20;55.30;;;;;;4943560;28;20644;-70
2020/12/02 00:14:58;;;;;;;18.73;15.93;;;2.20;55.50;;;;;;4931782;29;20178;-72
2020/12/02 00:17:23;;;;;;;16.07;14.50;;;2.20;55.10;;;;;;4931394;29;20719;-72
2020/12/02 00:19:50;;;;;;;17.90;13.30;;;2.30;55.70;;;;;;4931490;29;20209;-72
2020/12/02 00:22:20;;;;;;;16.63;14.05;;;2.30;55.40;;;;;;4931715;29;20179;-72
2020/12/02 00:24:46;;;;;;;16.35;14.75;;;2.30;54.60;;;;;;4931461;29;20332;-71
2020/12/02 00:27:18;;;;;;;18.17;14.23;;;2.40;54.80;;;;;;4948174;29;20213;-71
2020/12/02 00:29:46;;;;;;;20.25;14.07;;;2.40;54.60;;;;;;4949366;28;20186;-72
2020/12/02 00:32:28;;;;;;;14.60;13.13;;;2.40;54.10;;;;;;4949455;29;20175;-71
2020/12/02 00:34:55;;;;;;;16.50;14.38;;;2.30;53.70;;;;;;4950828;28;20581;-71
2020/12/02 00:37:22;;;;;;;14.07;12.63;;;2.30;54.20;;;;;;4950673;28;20228;-71
2020/12/02 00:39:48;;;;;;;16.65;14.95;;;2.30;54.40;;;;;;4945324;28;20566;-72
2020/12/02 00:42:14;;;;;;;15.80;14.20;;;2.20;54.60;;;;;;4930226;29;20190;-72
2020/12/02 00:44:39;;;;;;;12.50;11.40;;;2.20;54.60;;;;;;4931295;29;20877;-71
2020/12/02 00:47:13;;;;;;;17.87;16.07;;;2.20;54.70;;;;;;4931351;29;20620;-71
2020/12/02 00:49:39;;;;;;;24.58;15.82;;;2.20;54.90;;;;;;4931096;29;20667;-71
2020/12/02 00:52:07;;;;;;;17.35;15.55;;;2.10;55.50;;;;;;4931277;29;20189;-72
2020/12/02 00:54:34;;;;;;;20.63;16.15;;;2.10;55.50;;;;;;4949034;29;20182;-71
2020/12/02 00:57:00;;;;;;;17.35;15.60;;;2.20;55.60;;;;;;4950266;28;20213;-71
2020/12/02 00:59:29;;;;;;;21.70;15.70;;;2.20;55.50;;;;;;4949804;28;20182;-73
2020/12/02 01:02:19;;;;;;;21.05;17.75;;;2.20;55.50;;;;;;4949697;29;20197;-72
2020/12/02 01:04:45;;;;;;;17.42;15.75;;;2.20;55.50;;;;;;4950148;29;20224;-71
2020/12/02 01:07:15;;;;;;;17.58;15.85;;;2.20;55.50;;;;;;4950175;28;20198;-71
2020/12/02 01:09:40;;;;;;;16.98;15.23;;;2.20;55.50;;;;;;4949956;28;20178;-72
2020/12/02 01:12:13;;;;;;;18.33;15.87;;;2.20;55.30;;;;;;4950240;28;20667;-72
2020/12/02 01:14:40;;;;;;;18.58;15.88;;;2.10;55.10;;;;;;4930242;29;20800;-71
2020/12/02 01:17:05;;;;;;;19.77;17.67;;;2.10;55.50;;;;;;4930800;29;20620;-71
2020/12/02 01:19:34;;;;;;;17.20;13.77;;;2.10;55.50;;;;;;4930612;29;20186;-71
2020/12/02 01:22:19;;;;;;;20.88;17.63;;;2.10;55.50;;;;;;4930820;29;21055;-72
2020/12/02 01:24:58;;;;;;;22.58;17.45;;;2.10;55.50;;;;;;4930772;29;20248;-71
2020/12/02 01:27:31;;;;;;;21.95;18.33;;;;;;;;;;4931092;29;20214;-71
2020/12/02 01:29:58;;;;;;;16.63;15.02;;;;;;;;;;4930622;29;20186;-71
2020/12/02 01:32:25;;;;;;;14.77;12.70;;;;;;;;;;4930712;29;20221;-73
2020/12/02 01:34:53;;;;;;;18.77;16.92;;;;;;;;;;4930668;29;20190;-71
2020/12/02 01:37:21;;;;;;;25.55;14.90;;;;;;;;;;4930886;29;20205;-72
2020/12/02 01:39:57;;;;;;;22.17;16.13;;;;;;;;;;4931310;29;20675;-71
2020/12/02 01:42:23;;;;;;;21.77;18.05;;;;;;;;;;4934022;29;20239;-71
2020/12/02 01:44:49;;;;;;;23.00;15.60;;;;;;;;;;4933987;29;20210;-72
2020/12/02 01:47:39;;;;;;;19.45;17.27;;;;;;;;;;4934336;29;20438;-72
2020/12/02 01:50:11;;;;;;;20.05;17.73;;;;;;;;;;4934040;29;20198;-72
2020/12/02 01:53:01;;;;;;;26.75;19.55;;;;;;;;;;4933823;29;20257;-72
2020/12/02 01:55:37;;;;;;;38.80;19.63;;;2.40;74.40;;;;;;4978246;28;20198;-71
2020/12/02 01:58:12;;;;;;;35.10;20.60;;;2.20;54.50;;;;;;4953537;28;20197;-72
2020/12/02 02:00:40;;;;;;;18.40;16.45;;;2.10;54.90;;;;;;4954433;29;20189;-72
2020/12/02 02:03:14;;;;;;;40.97;20.65;;;2.10;55.50;;;;;;4952900;28;20216;-71
2020/12/02 02:05:52;;;;;;;31.25;17.95;;;2.10;55.50;;;;;;4952832;28;20192;-71
2020/12/02 02:08:23;;;;;;;22.13;19.25;;;2.00;55.40;;;;;;4953099;29;20192;-72
2020/12/02 02:10:50;;;;;;;24.85;18.17;;;2.00;55.40;;;;;;4951062;29;20194;-71
2020/12/02 02:13:44;;;;;;;51.08;19.45;;;2.00;55.80;;;;;;4952689;28;20193;-70
2020/12/02 02:16:40;;;;;;;41.53;18.15;;;1.90;56.00;;;;;;4953054;29;20707;-71
2020/12/02 02:19:13;;;;;;;23.40;18.17;;;2.00;56.50;;;;;;4953707;28;20291;-72
2020/12/02 02:21:39;;;;;;;46.55;22.45;;;1.90;56.50;;;;;;4951395;29;20277;-72
2020/12/02 02:24:04;;;;;;;32.37;18.73;;;2.00;56.50;;;;;;4936173;29;20353;-71
2020/12/02 02:26:39;;;;;;;19.17;17.13;;;2.00;56.60;;;;;;4933428;29;20198;-72
2020/12/02 02:29:28;;;;;;;23.83;17.92;;;1.90;56.70;;;;;;4933083;29;20175;-70
2020/12/02 02:32:03;;;;;;;21.17;15.65;;;1.90;56.60;;;;;;4933388;29;20514;-71
2020/12/02 02:34:30;;;;;;;19.80;17.05;;;1.90;56.70;;;;;;4933840;29;20229;-71
2020/12/02 02:36:57;;;;;;;30.45;18.90;;;1.80;56.90;;;;;;4938731;29;20213;-71
2020/12/02 02:39:23;;;;;;;20.17;15.82;;;1.90;57.10;;;;;;4952190;28;20189;-71
2020/12/02 02:41:54;;;;;;;21.07;18.27;;;;;;;;;;4952472;28;20189;-70
2020/12/02 02:44:20;;;;;;;20.67;16.73;;;;;;;;;;4952353;28;20613;-71
2020/12/02 02:46:49;;;;;;;23.23;16.00;;;2.00;56.30;;;;;;4952212;29;20265;-71
2020/12/02 02:49:15;;;;;;;20.20;17.95;;;2.10;57.00;;;;;;4950367;29;20424;-70
2020/12/02 02:51:41;;;;;;;19.37;14.67;;;2.00;56.60;;;;;;4932343;29;20182;-71
2020/12/02 02:54:09;;;;;;;23.17;19.13;;;2.00;56.70;;;;;;4933066;29;20417;-72
2020/12/02 02:56:34;;;;;;;24.25;17.45;;;2.00;56.90;;;;;;4951328;29;20247;-71
2020/12/02 02:59:00;;;;;;;23.40;16.30;;;;;;;;;;4951809;29;20186;-71
2020/12/02 03:01:26;;;;;;;18.47;16.53;;;2.00;56.80;;;;;;4951869;29;20184;-71
2020/12/02 03:03:52;;;;;;;23.77;16.53;;;2.10;56.10;;;;;;4946526;29;20557;-70
2020/12/02 03:06:17;;;;;;;18.17;16.27;;;2.10;56.30;;;;;;4932884;29;20244;-70
2020/12/02 03:08:43;;;;;;;25.53;16.60;;;2.10;56.10;;;;;;4932671;29;20706;-73
2020/12/02 03:11:13;;;;;;;18.63;15.73;;;2.10;56.10;;;;;;4932609;29;20210;-70
2020/12/02 03:13:49;;;;;;;19.40;16.50;;;2.20;56.00;;;;;;4931308;29;20207;-71
2020/12/02 03:16:32;;;;;;;17.80;16.00;;;2.30;55.60;;;;;;4932282;29;20659;-70
2020/12/02 03:19:03;;;;;;;18.15;13.85;;;2.20;55.50;;;;;;4934573;29;20232;-70
2020/12/02 03:21:29;;;;;;;16.23;14.45;;;2.10;55.50;;;;;;4960391;29;20189;-71
2020/12/02 03:23:54;;;;;;;16.20;13.30;;;2.10;55.50;;;;;;4964302;28;20292;-70
2020/12/02 03:26:21;;;;;;;18.87;14.77;;;2.20;55.50;;;;;;4965262;28;20515;-71
2020/12/02 03:28:47;;;;;;;16.85;14.88;;;2.20;55.50;;;;;;4963895;29;20205;-71
2020/12/02 03:31:16;;;;;;;14.00;12.70;;;2.20;55.50;;;;;;4964089;29;20249;-71
2020/12/02 03:33:42;;;;;;;22.27;14.23;;;2.30;55.60;;;;;;4964257;29;20211;-71
2020/12/02 03:36:12;;;;;;;13.70;12.30;;;2.40;55.30;;;;;;4948994;28;20652;-71
2020/12/02 03:38:38;;;;;;;15.13;13.70;;;2.40;54.90;;;;;;4946129;29;20879;-71
2020/12/02 03:41:05;;;;;;;13.75;12.35;;;2.40;54.30;;;;;;4945853;29;20179;-73
2020/12/02 03:43:30;;;;;;;14.15;12.15;;;2.40;54.20;;;;;;4944687;29;20215;-72
2020/12/02 03:45:56;;;;;;;16.53;14.83;;;2.40;53.90;;;;;;4945013;29;20183;-72
2020/12/02 03:48:22;;;;;;;18.23;14.30;;;2.40;54.00;;;;;;4947072;29;20202;-71
2020/12/02 03:50:47;;;;;;;17.33;15.47;;;2.40;53.70;;;;;;4962543;29;20186;-71
2020/12/02 03:53:15;;;;;;;18.17;15.23;;;2.40;53.60;;;;;;4962933;29;20489;-72
2020/12/02 03:55:41;;;;;;;18.98;15.55;;;2.30;54.50;;;;;;4964724;28;20181;-71
2020/12/02 03:58:07;;;;;;;23.00;16.93;;;2.30;54.00;;;;;;4967005;28;20225;-71
2020/12/02 04:00:33;;;;;;;20.77;16.93;;;2.30;54.20;;;;;;4964468;29;20430;-72
2020/12/02 04:02:59;;;;;;;18.17;16.17;;;2.30;54.40;;;;;;4947831;28;20444;-72
2020/12/02 04:05:25;;;;;;;19.40;15.93;;;2.30;54.50;;;;;;4945163;29;20414;-72
2020/12/02 04:07:50;;;;;;;17.27;14.17;;;2.30;54.40;;;;;;4944463;29;20445;-72
2020/12/02 04:10:16;;;;;;;22.97;15.50;;;2.30;54.50;;;;;;4944301;29;20175;-72
2020/12/02 04:12:44;;;;;;;15.27;13.77;;;2.20;54.50;;;;;;4945634;29;20433;-73
2020/12/02 04:15:10;;;;;;;17.88;14.13;;;2.20;54.80;;;;;;4947279;29;20426;-69
2020/12/02 04:17:36;;;;;;;14.50;13.00;;;2.30;55.20;;;;;;4966329;28;20221;-73
2020/12/02 04:20:02;;;;;;;14.23;12.87;;;2.30;54.80;;;;;;4965430;28;20193;-70
2020/12/02 04:22:28;;;;;;;14.45;12.95;;;2.40;54.40;;;;;;4964619;29;20265;-71
2020/12/02 04:24:53;;;;;;;15.43;13.50;;;2.50;55.60;;;;;;4963299;29;20954;-71
2020/12/02 04:27:19;;;;;;;14.07;12.67;;;2.70;75.50;;;;;;4964226;28;20205;-71
2020/12/02 04:29:44;;;;;;;13.50;12.20;;;2.60;73.80;;;;;;4965454;28;20177;-71
2020/12/02 04:32:10;;;;;;;20.70;15.77;;;2.60;73.70;;;;;;4964107;28;20182;-70
2020/12/02 04:34:36;;;;;;;17.30;14.33;;;2.70;63.20;;;;;;4965164;28;20572;-72
2020/12/02 04:37:02;;;;;;;19.13;14.90;;;2.60;63.60;;;;;;4965496;28;20210;-71
2020/12/02 04:39:28;;;;;;;18.83;15.15;;;2.50;63.70;;;;;;4963612;28;20589;-71
2020/12/02 04:41:54;;;;;;;14.40;12.90;;;2.60;64.30;;;;;;4964840;29;20186;-72
2020/12/02 04:44:20;;;;;;;16.07;14.10;;;2.50;64.00;;;;;;4964070;28;20218;-71
2020/12/02 04:46:46;;;;;;;22.90;15.05;;;2.40;66.00;;;;;;4957096;28;20813;-71
2020/12/02 04:49:20;;;;;;;17.90;15.10;;;2.50;65.00;;;;;;4943836;29;20237;-71
2020/12/02 04:51:46;;;;;;;15.95;13.90;;;2.40;63.80;;;;;;4946963;29;20187;-71
2020/12/02 04:54:12;;;;;;;16.07;13.97;;;2.30;65.30;;;;;;4946236;29;20183;-71
2020/12/02 04:56:46;;;;;;;16.30;12.55;;;2.40;65.80;;;;;;4953675;29;20219;-70
2020/12/02 04:59:12;;;;;;;16.17;14.45;;;2.30;65.40;;;;;;4948337;29;20206;-70
2020/12/02 05:01:49;;;;;;;16.60;14.52;;;2.40;65.50;;;;;;4957968;29;20216;-73
2020/12/02 05:04:17;;;;;;;15.55;13.93;;;2.40;65.90;;;;;;4946753;29;20221;-70
2020/12/02 05:06:48;;;;;;;15.40;13.45;;;2.40;65.80;;;;;;4948084;29;20178;-70
2020/12/02 05:09:21;;;;;;;14.18;12.68;;;2.40;66.00;;;;;;4947191;29;20175;-71
2020/12/02 05:12:04;;;;;;;16.08;12.40;;;2.50;66.00;;;;;;4962044;29;20271;-72
2020/12/02 05:14:44;;;;;;;17.58;12.88;;;2.60;66.80;;;;;;4965008;28;20186;-71
2020/12/02 05:17:27;;;;;;;13.88;12.48;;;2.60;67.00;;;;;;4950358;28;20220;-73
2020/12/02 05:20:21;;;;;;;15.13;12.18;;;2.50;67.80;;;;;;4951728;28;20769;-71
2020/12/02 05:22:49;;;;;;;8.50;7.80;;;2.50;70.20;;;;;;4945796;29;20216;-71
2020/12/02 05:25:35;;;;;;;9.00;7.95;;;2.70;68.60;;;;;;4932117;29;20190;-71
2020/12/02 05:28:03;;;;;;;9.73;6.97;;;2.70;57.90;;;;;;4938293;29;20209;-71
2020/12/02 05:30:32;;;;;;;7.75;6.95;;;2.60;56.20;;;;;;4950801;28;20213;-71
2020/12/02 05:33:07;;;;;;;6.75;6.18;;;2.50;55.80;;;;;;4952068;28;20170;-71
2020/12/02 05:35:33;;;;;;;8.50;6.03;;;2.50;55.80;;;;;;4950353;28;20200;-71
2020/12/02 05:37:59;;;;;;;8.88;7.32;;;2.40;44.80;;;;;;4950698;28;20672;-71
2020/12/02 05:40:28;;;;;;;8.90;6.43;;;2.40;44.60;;;;;;4947359;28;20185;-71
2020/12/02 05:42:58;;;;;;;6.70;5.90;;;2.40;44.30;;;;;;4932436;29;20171;-72
2020/12/02 05:45:35;;;;;;;8.80;6.45;;;2.40;43.80;;;;;;4929556;29;20549;-71
2020/12/02 05:48:01;;;;;;;6.30;5.05;;;2.40;43.80;;;;;;4941009;29;20195;-74
2020/12/02 05:50:27;;;;;;;7.03;6.30;;;2.40;43.80;;;;;;4943156;29;20175;-73
2020/12/02 05:53:27;;;;;;;6.53;5.93;;;2.40;43.90;;;;;;4944735;29;20175;-71
2020/12/02 05:55:53;;;;;;;6.65;5.95;;;2.40;43.60;;;;;;4956566;29;20174;-73
2020/12/02 05:58:22;;;;;;;6.07;5.47;;;2.50;43.60;;;;;;4961060;28;20245;-73
2020/12/02 06:00:47;;;;;;;6.60;6.00;;;2.50;42.80;;;;;;4943302;28;20418;-73
2020/12/02 06:03:18;;;;;;;10.63;5.90;;;2.50;42.80;;;;;;4941537;29;20214;-73
2020/12/02 06:05:44;;;;;;;7.55;5.65;;;2.50;43.20;;;;;;4942687;29;20183;-71
2020/12/02 06:08:11;;;;;;;7.60;5.07;;;2.40;42.40;;;;;;4951008;29;20258;-70
2020/12/02 06:10:43;;;;;;;7.28;6.55;;;2.40;41.70;;;;;;4960332;28;20183;-73
2020/12/02 06:13:16;;;;;;;6.13;5.05;;;2.40;41.70;;;;;;4958042;28;20192;-72
2020/12/02 06:15:42;;;;;;;6.65;5.95;;;2.30;41.30;;;;;;4958669;28;20198;-70
2020/12/02 06:18:22;;;;;;;6.10;5.60;;;2.30;42.60;;;;;;4960251;28;20218;-73
2020/12/02 06:20:49;;;;;;;8.43;7.05;;;2.40;42.50;;;;;;4959110;29;20218;-72
2020/12/02 06:23:14;;;;;;;8.20;7.43;;;2.40;42.40;;;;;;4944059;28;20253;-71
2020/12/02 06:25:49;;;;;;;9.30;7.13;;;2.40;42.50;;;;;;4934855;29;20374;-72
2020/12/02 06:28:30;;;;;;;8.90;5.78;;;2.30;42.60;;;;;;4932338;29;20198;-70
2020/12/02 06:31:04;;;;;;;6.80;5.40;;;2.30;41.60;;;;;;4932797;29;20186;-71
2020/12/02 06:33:35;;;;;;;6.53;4.95;;;2.30;44.50;;;;;;4933226;29;20386;-69
2020/12/02 06:36:18;;;;;;;7.47;5.53;;;2.40;45.60;;;;;;4948081;29;20215;-72
2020/12/02 06:38:47;;;;;;;5.25;4.75;;;2.40;48.80;;;;;;4952512;28;20257;-71
2020/12/02 06:41:23;;;;;;;6.60;4.18;;;2.50;43.70;;;;;;4952866;28;20178;-71
2020/12/02 06:44:03;;;;;;;5.20;4.57;;;2.40;37.50;;;;;;4963242;28;20194;-71
2020/12/02 06:46:53;;;;;;;4.97;4.43;;;2.40;37.50;;;;;;4965895;28;20242;-71
2020/12/02 06:49:19;;;;;;;5.72;4.88;;;2.40;37.20;;;;;;4958153;28;20183;-71
2020/12/02 06:51:57;;;;;;;6.35;4.50;;;2.40;37.50;;;;;;4946140;29;20198;-70
2020/12/02 06:54:24;;;;;;;9.63;5.07;;;2.40;36.70;;;;;;4946065;29;20449;-73
2020/12/02 06:56:57;;;;;;;11.10;6.60;;;2.30;37.00;;;;;;4944444;29;20187;-71
2020/12/02 06:59:22;;;;;;;6.30;5.70;;;2.20;38.20;;;;;;4941553;29;20253;-72
2020/12/02 07:01:49;;;;;;;6.07;5.47;;;2.20;38.40;;;;;;4942901;29;20246;-70
2020/12/02 07:04:20;;;;;;;5.75;5.15;;;2.20;38.50;;;;;;4942412;29;20315;-71
2020/12/02 07:06:56;;;;;;;5.43;4.93;;;2.20;38.20;;;;;;4943555;29;20182;-71
2020/12/02 07:09:22;;;;;;;6.70;5.80;;;2.20;37.80;;;;;;4943524;29;20178;-71
2020/12/02 07:11:55;;;;;;;6.60;4.83;;;2.20;37.90;;;;;;4944917;29;20185;-71
2020/12/02 07:14:23;;;;;;;6.25;5.30;;;2.20;37.90;;;;;;4944318;29;20178;-73
2020/12/02 07:16:56;;;;;;;8.48;5.22;;;2.20;37.90;;;;;;4956286;29;20233;-73
2020/12/02 07:19:27;;;;;;;7.00;4.75;;;2.20;38.00;;;;;;4961317;28;20197;-72
2020/12/02 07:21:57;;;;;;;12.45;7.25;;;2.30;37.90;;;;;;4958111;29;20182;-72
2020/12/02 07:24:35;;;;;;;7.60;6.70;;;2.40;37.80;;;;;;4956940;28;20211;-72
2020/12/02 07:27:01;;;;;;;5.85;5.35;;;2.40;37.60;;;;;;4954037;28;20264;-71
2020/12/02 07:29:28;;;;;;;7.83;6.47;;;2.60;37.10;;;;;;4948343;28;20202;-72
2020/12/02 07:32:01;;;;;;;9.00;6.68;;;2.60;37.10;;;;;;4948718;28;20186;-74
2020/12/02 07:34:27;;;;;;;6.68;5.97;;;2.70;37.20;;;;;;4963033;28;20190;-71
2020/12/02 07:37:03;;;;;;;10.43;5.80;;;2.60;37.10;;;;;;4967949;28;20188;-71
2020/12/02 07:39:29;;;;;;;6.78;5.25;;;2.60;36.90;;;;;;4946992;29;20197;-72
2020/12/02 07:42:25;;;;;;;6.85;5.65;;;2.60;36.10;;;;;;4948494;28;20194;-71
2020/12/02 07:45:20;;;;;;;7.30;6.57;;;2.70;36.20;;;;;;4948013;28;20620;-72
2020/12/02 07:48:05;;;;;;;12.73;4.85;;;2.60;36.50;;;;;;4946724;28;20285;-71
2020/12/02 07:50:43;;;;;;;5.80;5.28;;;2.60;36.20;;;;;;4942137;29;20186;-71
2020/12/02 07:53:21;;;;;;;6.13;5.43;;;2.60;35.30;;;;;;4955192;28;20215;-70
2020/12/02 07:55:49;;;;;;;7.85;6.72;;;2.60;36.20;;;;;;4932984;28;20217;-72
2020/12/02 07:58:29;;;;;;;6.80;6.10;;;2.60;36.20;;;;;;4932035;29;20199;-72
2020/12/02 08:00:57;;;;;;;7.35;6.72;;;2.50;36.90;;;;;;4929043;29;20194;-71
2020/12/02 08:03:34;;;;;;;8.77;6.10;;;2.50;37.60;;;;;;4928762;29;20699;-72
2020/12/02 08:06:27;;;;;;;6.22;5.63;;;2.50;37.30;;;;;;4934463;29;20277;-73
2020/12/02 08:08:53;;;;;;;6.70;6.10;;;2.50;36.10;;;;;;4948271;28;20202;-71
2020/12/02 08:11:19;;;;;;;5.23;4.73;;;2.60;36.10;;;;;;4949576;28;20212;-71
2020/12/02 08:13:53;;;;;;;8.87;6.30;;;2.60;36.10;;;;;;4952710;28;20557;-74
2020/12/02 08:16:30;;;;;;;9.68;4.75;;;2.50;37.00;;;;;;4931860;29;20228;-73
2020/12/02 08:18:57;;;;;;;4.65;4.25;;;2.60;34.80;;;;;;4928587;29;20236;-74
2020/12/02 08:21:26;;;;;;;6.85;5.88;;;2.50;35.20;;;;;;4949254;29;20555;-76
2020/12/02 08:24:15;;;;;;;5.80;4.50;;;2.50;35.50;;;;;;4946139;28;20213;-72
2020/12/02 08:26:43;;;;;;;5.32;3.95;;;2.40;35.90;;;;;;4944067;29;20264;-71
2020/12/02 08:29:10;;;;;;;5.18;4.63;;;2.50;36.10;;;;;;4940009;29;20217;-71
2020/12/02 08:31:37;;;;;;;5.25;4.75;;;2.50;34.90;;;;;;4944799;28;20190;-71
2020/12/02 08:34:10;;;;;;;9.35;5.07;;;2.50;36.00;;;;;;4938886;29;20183;-71
2020/12/02 08:36:36;;;;;;;5.70;5.20;;;2.50;35.10;;;;;;4950626;28;20188;-72
2020/12/02 08:39:04;;;;;;;7.18;5.35;;;2.40;35.90;;;;;;4944923;28;20588;-71
2020/12/02 08:41:39;;;;;;;6.78;5.20;;;2.30;35.80;;;;;;4950981;28;20213;-71
2020/12/02 08:44:11;;;;;;;5.38;4.40;;;2.30;35.90;;;;;;4946493;28;20201;-71
2020/12/02 08:47:08;;;;;;;6.15;5.55;;;2.30;35.90;;;;;;4942013;28;20262;-71
2020/12/02 08:49:35;;;;;;;6.30;5.60;;;2.30;35.90;;;;;;4948884;28;20202;-71
2020/12/02 08:52:01;;;;;;;5.90;5.40;;;2.40;35.20;;;;;;4951004;29;20274;-71
2020/12/02 08:54:27;;;;;;;5.03;4.53;;;2.50;36.00;;;;;;4957493;28;20198;-71
2020/12/02 08:57:07;;;;;;;6.15;5.60;;;2.70;34.00;;;;;;4952387;28;20428;-71
2020/12/02 08:59:34;;;;;;;5.93;4.93;;;2.80;33.90;;;;;;4949121;29;20667;-71
2020/12/02 09:02:15;;;;;;;6.28;5.00;;;3.00;32.90;;;;;;4953008;28;20189;-72
2020/12/02 09:04:42;;;;;;;6.55;5.57;;;3.10;32.80;;;;;;4951677;28;20201;-71
2020/12/02 09:07:08;;;;;;;7.22;5.57;;;3.20;32.00;;;;;;4950325;28;20607;-71
2020/12/02 09:09:34;;;;;;;7.70;6.05;;;3.40;31.60;;;;;;4950154;28;20554;-71
2020/12/02 09:11:59;;;;;;;7.87;5.23;;;3.50;31.30;;;;;;4950555;28;20186;-71
2020/12/02 09:14:25;;;;;;;3.93;3.57;;;3.50;31.50;;;;;;4950376;28;20347;-71
2020/12/02 09:16:51;;;;;;;6.27;4.93;;;3.50;30.60;;;;;;4950469;28;20204;-70
2020/12/02 09:19:18;;;;;;;5.30;4.80;;;3.50;30.80;;;;;;4951019;28;20643;-70
2020/12/02 09:21:45;;;;;;;5.57;4.93;;;3.40;31.00;;;;;;4950236;28;20176;-71
2020/12/02 09:24:11;;;;;;;9.32;5.85;;;3.30;31.60;;;;;;4930286;28;20348;-72
2020/12/02 09:26:38;;;;;;;6.23;4.93;;;3.30;31.60;;;;;;4930126;29;20257;-72
2020/12/02 09:29:06;;;;;;;5.90;5.30;;;3.40;31.60;;;;;;4937726;29;20673;-72
2020/12/02 09:31:33;;;;;;;8.75;5.43;;;3.30;31.60;;;;;;4931629;29;20171;-72
2020/12/02 09:33:59;;;;;;;11.13;5.20;;;3.40;30.70;;;;;;4931256;29;20518;-71
2020/12/02 09:36:26;;;;;;;7.10;5.22;;;3.30;31.50;;;;;;4927454;29;20218;-72
2020/12/02 09:38:53;;;;;;;9.70;5.65;;;3.40;31.60;;;;;;4933914;29;20210;-71
2020/12/02 09:41:27;;;;;;;7.65;4.85;;;3.40;31.60;;;;;;4939701;28;20179;-71
2020/12/02 09:44:24;;;;;;;6.93;5.03;;;3.30;32.00;;;;;;4947552;29;20213;-71
2020/12/02 09:47:07;;;;;;;5.72;5.22;;;3.30;32.30;;;;;;4938601;29;20187;-71
2020/12/02 09:49:33;;;;;;;6.82;4.90;;;3.30;32.30;;;;;;4933751;29;20183;-71
2020/12/02 09:52:07;;;;;;;6.95;5.20;;;3.30;32.00;;;;;;4933464;28;20198;-72
2020/12/02 09:54:41;;;;;;;6.40;4.95;;;3.30;32.40;;;;;;4945856;28;20695;-71
2020/12/02 09:57:26;;;;;;;7.35;6.25;;;3.40;32.40;;;;;;4931254;28;20219;-71
2020/12/02 09:59:57;;;;;;;10.20;5.65;;;3.30;32.50;;;;;;4940160;29;20178;-72
2020/12/02 10:02:47;;;;;;;7.82;4.43;;;3.30;32.40;;;;;;4954925;28;20190;-70
2020/12/02 10:05:42;;;;;;;4.90;4.45;;;3.30;31.60;;;;;;4954915;28;20218;-71
2020/12/02 10:08:32;;;;;;;4.45;3.97;;;3.20;32.40;;;;;;4946246;28;20269;-71
2020/12/02 10:11:17;;;;;;;6.63;5.47;;;3.20;33.00;;;;;;4937866;29;20240;-71
2020/12/02 10:13:58;;;;;;;6.30;5.70;;;3.10;33.30;;;;;;4938266;29;20174;-71
2020/12/02 10:16:53;;;;;;;9.60;6.78;;;3.00;33.80;;;;;;4937936;29;20174;-71
2020/12/02 10:19:48;;;;;;;8.30;7.47;;;2.90;34.80;;;;;;5041850;28;20198;-71
2020/12/02 10:22:32;;;;;;;7.35;6.57;;;2.90;35.10;;;;;;4939358;29;20604;-71
2020/12/02 10:25:21;;;;;;;11.57;7.13;;;2.80;36.30;;;;;;4954523;29;20214;-71
2020/12/02 10:27:55;;;;;;;10.80;7.45;;;2.80;36.30;;;;;;4940402;29;20556;-71
2020/12/02 10:30:25;;;;;;;7.47;6.63;;;2.80;36.30;;;;;;4935177;29;20178;-71
2020/12/02 10:33:09;;;;;;;7.18;6.20;;;2.70;36.20;;;;;;4936916;29;20549;-71
2020/12/02 10:35:37;;;;;;;9.05;7.90;;;2.60;36.90;;;;;;4948109;29;20212;-71
2020/12/02 10:38:22;;;;;;;11.70;8.55;;;2.50;36.90;;;;;;4951992;28;20574;-71
2020/12/02 10:40:54;;;;;;;10.20;7.38;;;2.50;37.40;;;;;;4955117;28;20174;-70
2020/12/02 10:43:47;;;;;;;8.20;7.40;;;2.40;37.90;;;;;;4956103;29;20215;-71
2020/12/02 10:46:30;;;;;;;11.40;9.65;;;2.40;38.50;;;;;;4952062;29;20213;-71
2020/12/02 10:49:29;;;;;;;10.25;8.38;;;2.40;39.40;;;;;;4951748;28;20233;-70
2020/12/02 10:51:58;;;;;;;9.05;8.15;;;2.40;38.30;;;;;;4943000;29;20193;-71
2020/12/02 10:54:35;;;;;;;12.63;8.32;;;2.40;38.40;;;;;;4939752;29;20190;-70
2020/12/02 10:57:06;;;;;;;13.23;9.68;;;2.50;38.40;;;;;;4945124;28;20284;-72
2020/12/02 10:59:32;;;;;;;13.20;10.32;;;2.60;38.70;;;;;;4948856;28;20186;-71
2020/12/02 11:01:57;;;;;;;12.20;10.20;;;2.60;38.20;;;;;;4932486;29;20652;-71
2020/12/02 11:04:23;;;;;;;10.87;9.57;;;2.70;38.20;;;;;;4933321;29;20359;-71
2020/12/02 11:07:03;;;;;;;16.80;9.47;;;2.70;37.90;;;;;;4947962;28;20217;-71
2020/12/02 11:09:35;;;;;;;12.38;10.82;;;2.80;37.90;;;;;;4932824;28;20178;-70
2020/12/02 11:12:04;;;;;;;14.18;10.15;;;2.90;37.70;;;;;;4931792;29;20186;-71
2020/12/02 11:14:38;;;;;;;10.45;8.73;;;2.90;37.90;;;;;;4932850;29;20722;-71
2020/12/02 11:17:40;;;;;;;11.30;10.10;;;2.90;37.70;;;;;;4932061;29;20218;-71
2020/12/02 11:20:15;;;;;;;9.65;8.65;;;2.90;37.50;;;;;;4943182;29;20184;-73
2020/12/02 11:23:06;;;;;;;12.77;10.23;;;3.00;37.30;;;;;;4961787;28;20283;-72
2020/12/02 11:25:53;;;;;;;11.30;10.20;;;3.00;37.80;;;;;;4970953;28;20189;-72
2020/12/02 11:28:18;;;;;;;12.75;10.90;;;3.10;37.60;;;;;;4970636;28;20671;-72
2020/12/02 11:30:46;;;;;;;13.30;9.83;;;3.20;36.60;;;;;;4951936;28;20186;-72
2020/12/02 11:33:28;;;;;;;15.45;11.90;;;3.20;37.30;;;;;;4950106;29;20276;-72
2020/12/02 11:36:06;;;;;;;11.95;9.93;;;3.30;36.70;;;;;;4949555;29;20264;-72
2020/12/02 11:38:50;;;;;;;16.80;9.55;;;3.10;36.50;;;;;;4933519;28;20198;-72
2020/12/02 11:41:36;;;;;;;12.68;10.32;;;3.00;37.00;;;;;;4941508;29;20261;-72
2020/12/02 11:44:27;;;;;;;11.55;10.38;;;3.00;37.50;;;;;;4951006;29;20245;-72
2020/12/02 11:47:07;;;;;;;11.82;10.73;;;3.00;37.30;;;;;;4950663;28;20194;-73
2020/12/02 11:49:37;;;;;;;11.13;9.98;;;3.00;36.40;;;;;;4938053;29;20185;-73
2020/12/02 11:52:28;;;;;;;12.90;10.50;;;3.00;36.50;;;;;;4948391;29;20182;-72
2020/12/02 11:54:55;;;;;;;15.63;10.98;;;2.90;36.40;;;;;;4940302;28;20222;-70
2020/12/02 11:57:21;;;;;;;15.98;12.90;;;2.80;36.70;;;;;;4940953;29;20210;-74
2020/12/02 11:59:47;;;;;;;12.48;10.95;;;2.80;37.50;;;;;;4942782;29;20230;-74
2020/12/02 12:02:15;;;;;;;14.13;12.27;;;2.70;37.00;;;;;;4944448;29;21332;-73
2020/12/02 12:05:02;;;;;;;17.35;12.18;;;2.70;36.50;;;;;;4961616;29;20210;-73
2020/12/02 12:07:42;;;;;;;19.10;12.40;;;2.70;36.70;;;;;;4957518;28;20272;-73
2020/12/02 12:10:20;;;;;;;17.42;10.82;;;2.70;36.40;;;;;;4948448;29;20210;-70
2020/12/02 12:13:07;;;;;;;14.13;12.35;;;2.70;37.00;;;;;;4961949;29;20184;-71
2020/12/02 12:15:37;;;;;;;26.02;15.38;;;2.80;37.40;;;;;;4951849;29;20194;-74
2020/12/02 12:18:31;;;;;;;19.40;12.10;;;2.80;37.40;;;;;;4959730;29;20228;-73
2020/12/02 12:21:02;;;;;;;18.75;12.10;;;2.80;37.20;;;;;;4961904;28;20182;-72
2020/12/02 12:23:28;;;;;;;15.20;12.55;;;2.80;38.10;;;;;;4963138;28;20206;-70
2020/12/02 12:25:56;;;;;;;17.67;12.90;;;2.90;37.50;;;;;;4959171;29;20246;-72
2020/12/02 12:28:26;;;;;;;15.70;12.32;;;2.90;36.40;;;;;;4959696;29;20216;-70
2020/12/02 12:30:57;;;;;;;15.45;9.05;;;2.90;36.70;;;;;;4962778;29;20186;-71
2020/12/02 12:33:34;;;;;;;14.30;11.90;;;2.80;36.30;;;;;;4948910;28;20309;-73
2020/12/02 12:36:11;;;;;;;15.32;13.60;;;2.70;36.90;;;;;;4943234;29;20218;-72
2020/12/02 12:38:52;;;;;;;17.70;12.88;;;2.70;37.10;;;;;;4946580;29;20321;-72
2020/12/02 12:41:29;;;;;;;15.43;12.35;;;2.70;37.60;;;;;;4941582;29;20186;-72
2020/12/02 12:44:01;;;;;;;15.77;12.50;;;2.60;37.00;;;;;;4942437;29;20208;-73
2020/12/02 12:46:57;;;;;;;20.98;13.70;;;2.60;38.00;;;;;;4942974;29;20224;-73
2020/12/02 12:49:23;;;;;;;21.00;11.50;;;2.70;38.20;;;;;;4942800;29;20190;-71
2020/12/02 12:51:55;;;;;;;16.25;12.55;;;2.70;35.30;;;;;;4945253;29;20206;-72
2020/12/02 12:54:21;;;;;;;14.55;9.63;;;2.70;32.80;;;;;;4946954;29;20726;-72
2020/12/02 12:56:51;;;;;;;16.30;10.30;;;2.70;32.10;;;;;;4946652;29;20231;-72
2020/12/02 12:59:17;;;;;;;9.48;8.48;;;2.70;29.90;;;;;;4939332;29;20538;-71
2020/12/02 13:01:46;;;;;;;10.23;8.00;;;2.70;29.10;;;;;;4938369;29;20706;-74
2020/12/02 13:04:16;;;;;;;15.27;10.75;;;2.60;30.00;;;;;;4955048;29;20493;-71
2020/12/02 13:07:06;;;;;;;12.13;9.25;;;2.60;29.50;;;;;;4938027;28;20652;-71
2020/12/02 13:10:03;;;;;;;12.48;8.20;;;2.60;30.40;;;;;;4930473;29;20262;-71
2020/12/02 13:12:32;;;;;;;8.85;7.15;;;;;;;;;;4947127;29;20213;-72
2020/12/02 13:15:25;;;;;;;10.18;8.52;;;2.50;47.50;;;;;;4950233;28;20269;-71
2020/12/02 13:18:22;;;;;;;10.23;8.75;;;2.40;48.90;;;;;;4930282;29;20628;-71